Latest Coastal Weather Observations for Kingfish B

IDV60701

Issued at 2:35 am EDT Sunday 23 November 2014 (issued every 10 minutes, with the page automatically refreshed every 10 minutes)

About coastal observations | Map of coastal stations | Coastal observations for VIC | Marine services | Other Formats
Station Details ID: 400139 Name: KINGFISH B (PLATFORM) Lat: -38.60 Lon: 148.19 Height: 31.4 m
Data from the previous 72 hours. | See also: Recent months for locations in Victoria
Date/Time
EDT
Temp

°C
Wind Pressure Rain
since 9am
mm
Weather Cloud Vis
km
Sea
Height
m
Swell
Dir
 
Speed
knots
Gust
knots
hPa Trend Height
m
Period
s
Dir
23/02:30am 20.9 NW 16 21 1005.9 - - - - - - - - -
23/02:20am 20.3 NW 16 18 1005.8 - - - - - - - - -
23/02:10am 19.9 NNW 17 18 1005.8 - - - - - - - - -
23/02:00am 19.6 N 15 19 1005.8 - - - - - - - - -
23/01:50am 19.6 N 15 17 1005.8 - - - - - - - - -
23/01:40am 19.6 - 16 17 1005.7 - - - - - - - - -
23/01:30am 19.7 N 16 17 1005.8 - - - - - - - - -
23/01:20am 19.8 N 18 19 1005.8 - - - - - - - - -
23/01:10am 19.7 N 17 19 1005.8 - - - - - - - - -
23/01:00am 19.6 NNE 16 17 1005.8 - - - - - - - - -
23/12:50am 19.7 NNE 15 17 1005.9 - - - - - - - - -
23/12:40am 19.7 NNE 15 17 1005.8 - - - - - - - - -
23/12:30am 19.8 NNE 16 17 1005.8 - - - - - - - - -
23/12:20am 19.7 NNE 15 16 1006.0 - - - - - - - - -
23/12:10am 19.9 NE 14 15 1006.1 - - - - - - - - -
23/12:00am 20.0 NE 15 16 1006.2 - - - - - - - - -
 
Date/Time
EDT
Temp

°C
Wind Pressure Rain
since 9am
mm
Weather Cloud Vis
km
Sea
Height
m
Swell
Dir
 
Speed
knots
Gust
knots
hPa Trend Height
m
Period
s
Dir
22/11:50pm 20.0 NE 16 16 1006.4 - - - - - - - - -
22/11:40pm 20.1 NE 17 18 1006.5 - - - - - - - - -
22/11:20pm 20.1 NE 16 17 1007.0 - - - - - - - - -
22/11:10pm 20.1 NE 15 16 1007.1 - - - - - - - - -
22/11:00pm 20.0 NE 15 16 1007.2 - - - - - - - - -
22/10:50pm 19.9 NE 14 16 1007.3 - - - - - - - - -
22/10:40pm 19.7 NE 12 13 1007.2 - - - - - - - - -
22/10:30pm 19.8 NE 13 15 1007.2 - - - - - - - - -
22/10:20pm 19.8 NE 15 17 1007.1 - - - - - - - - -
22/10:10pm 19.9 NE 17 18 1007.1 - - - - - - - - -
22/10:00pm 20.0 NE 17 19 1007.1 - - - - - - - - -
22/09:50pm 20.0 NE 19 21 1007.0 - - - - - - - - -
22/09:40pm 19.7 NE 19 21 1006.9 - - - - - - - - -
22/09:30pm 19.6 NE 18 20 1007.0 - - - - - - - - -
22/09:20pm 19.6 NE 17 19 1007.0 - - - - - - - - -
22/09:10pm 19.6 NE 16 19 1007.0 - - - - - - - - -
22/09:00pm 19.6 NE 16 17 1007.0 - - - - - - - - -
22/08:50pm 19.5 NE 15 17 1007.2 - - - - - - - - -
22/08:40pm 19.6 NE 15 17 1007.1 - - - - - - - - -
22/08:30pm 19.7 NE 16 17 1007.1 - - - - - - - - -
22/08:20pm 19.7 NE 17 18 1007.2 - - - - - - - - -
22/08:10pm 19.9 NE 15 18 1007.2 - - - - - - - - -
22/08:00pm 20.0 NNE 13 13 1007.4 - - - - - - - - -
22/07:50pm 19.9 NNE 11 12 1007.4 - - - - - - - - -
22/07:40pm 19.6 NE 9 11 1007.3 - - - - - - - - -
22/07:30pm 20.0 NE 7 8 1007.3 - - - - - - - - -
22/07:20pm 19.9 NNE 5 7 1007.5 - - - - - - - - -
22/07:10pm 19.5 NNE 5 6 1007.5 - - - - - - - - -
22/07:00pm 19.5 NE 5 6 1007.6 - - - - - - - - -
22/06:50pm 19.9 NNE 6 8 1007.7 - - - - - - - - -
22/06:40pm 19.9 NNE 9 10 1007.7 - - - - - - - - -
22/06:30pm 19.8 N 10 11 1007.7 - - - - - - - - -
22/06:20pm 19.6 N 11 11 1007.8 - - - - - - - - -
22/06:10pm 19.8 NNE 10 11 1008.0 - - - - - - - - -
22/06:00pm 19.9 NNE 9 9 1008.2 - - - - - - - - -
22/05:40pm 19.8 N 11 12 1008.2 - - - - - - - - -
22/05:30pm 19.7 N 9 11 1008.2 - - - - - - - - -
22/05:20pm 19.7 NNE 9 11 1008.1 - - - - - - - - -
22/05:10pm 19.8 NE 8 9 1008.2 - - - - - - - - -
22/05:00pm 19.8 NNE 10 10 1007.9 - - - - - - - - -
22/04:50pm 19.7 NNE 10 11 1008.1 - - - - - - - - -
22/04:40pm 19.6 NNE 10 11 1008.2 - - - - - - - - -
22/04:30pm 19.6 NNE 10 12 1008.3 - - - - - - - - -
22/04:20pm 19.5 NNE 10 12 1008.6 - - - - - - - - -
22/04:10pm 19.3 N 12 14 1008.7 - - - - - - - - -
22/04:00pm 19.4 NNE 12 14 1008.7 - - - - - - - - -
22/03:50pm 19.3 NNE 12 14 1008.8 - - - - - - - - -
22/03:40pm 19.2 N 11 13 1009.2 - - - - - - - - -
22/03:30pm 18.9 NNE 13 15 1009.2 - - - - - - - - -
22/03:20pm 18.9 NNE 13 15 1009.2 - - - - - - - - -
22/03:10pm 18.8 NNE 13 14 1009.3 - - - - - - - - -
22/03:00pm 18.8 NNE 14 15 1009.3 - - - - - - - - -
22/02:50pm 18.8 NNE 14 16 1009.3 - - - - - - - - -
22/02:40pm 18.9 NNE 14 16 1009.6 - - - - - - - - -
22/02:30pm 18.9 NNE 14 15 1009.9 - - - - - - - - -
22/02:20pm 19.0 NNE 13 14 1010.0 - - - - - - - - -
22/02:10pm 19.0 NNE 13 15 1010.1 - - - - - - - - -
22/02:00pm 19.1 NNE 13 15 1010.2 - - - - - - - - -
22/01:50pm 19.0 NNE 12 14 1010.3 - - - - - - - - -
22/01:40pm 18.9 NE 14 15 1010.4 - - - - - - - - -
22/01:30pm 19.0 NNE 12 14 1010.6 - - - - - - - - -
22/01:20pm 19.1 NE 13 15 1010.6 - - - - - - - - -
22/01:10pm 19.1 NE 12 15 1010.8 - - - - - - - - -
22/01:00pm 19.1 NE 13 14 1010.8 - - - - - - - - -
22/12:50pm 19.1 NE 13 14 1011.0 - - - - - - - - -
22/12:40pm 19.2 NE 12 14 1011.0 - - - - - - - - -
22/12:30pm 19.2 NE 11 13 1011.1 - - - - - - - - -
22/12:20pm 19.1 NE 12 14 1011.0 - - - - - - - - -
22/12:10pm 19.1 NE 13 15 1010.8 - - - - - - - - -
22/12:00pm 19.2 NE 13 15 1010.9 - - - - - - - - -
22/11:50am 19.3 NE 14 17 1010.9 - - - - - - - - -
22/11:40am 19.5 NE 14 16 1010.9 - - - - - - - - -
22/11:30am 19.2 NE 14 16 1011.0 - - - - - - - - -
22/11:20am 19.1 NE 15 17 1011.1 - - - - - - - - -
22/11:10am 19.2 NE 15 17 1011.3 - - - - - - - - -
22/11:00am 19.1 NE 16 19 1011.4 - - - - - - - - -
22/10:50am 19.2 NE 14 17 1011.5 - - - - - - - - -
22/10:40am 19.1 NE 15 19 1011.6 - - - - - - - - -
22/10:30am 19.3 NE 16 19 1011.6 - - - - - - - - -
22/10:20am 19.3 NE 17 20 1011.4 - - - - - - - - -
22/10:10am 19.3 NE 14 18 1011.7 - - - - - - - - -
22/10:00am 19.2 NE 14 16 1011.8 - - - - - - - - -
22/09:50am 19.2 NE 13 15 1011.9 - - - - - - - - -
22/09:40am 19.3 NE 13 15 1012.0 - - - - - - - - -
22/09:30am 19.0 NE 13 16 1011.9 - - - - - - - - -
22/09:10am 18.9 NE 13 15 1011.7 - - - - - - - - -
22/09:00am 19.3 NE 14 16 1011.7 - - - - - - - - -
22/08:50am 19.5 NE 13 15 1011.8 - - - - - - - - -
22/08:40am 19.4 NE 13 15 1011.8 - - - - - - - - -
22/08:30am 19.2 NE 13 15 1011.8 - - - - - - - - -
22/08:20am 19.1 NE 13 15 1011.8 - - - - - - - - -
22/08:10am 18.9 NE 13 14 1011.8 - - - - - - - - -
 
Date/Time
EDT
Temp

°C
Wind Pressure Rain
since 9am
mm
Weather Cloud Vis
km
Sea
Height
m
Swell
Dir
 
Speed
knots
Gust
knots
hPa Trend Height
m
Period
s
Dir
21/05:20pm 15.3 SSW 21 26 1010.9 - - - - - - - - -
21/05:10pm 15.2 SSW 21 26 1010.8 - - - - - - - - -
21/05:00pm 15.4 SSW 21 25 1010.7 - - - - - - - - -
21/04:50pm 15.6 SSW 21 24 1010.5 - - - - - - - - -
21/04:40pm 15.6 SSW 21 24 1010.6 - - - - - - - - -
21/04:30pm 15.7 SSW 21 25 1010.5 - - - - - - - - -
21/04:20pm 15.6 SSW 22 25 1010.5 - - - - - - - - -
21/04:10pm 15.7 SSW 20 23 1010.4 - - - - - - - - -
21/04:00pm 15.7 SSW 24 28 1010.3 - - - - - - - - -
21/03:50pm 15.8 SSW 26 30 1010.1 - - - - - - - - -
21/03:30pm 15.9 SW 26 32 1010.0 - - - - - - - - -
21/03:20pm 15.9 SW 30 34 1009.8 - - - - - - - - -
21/03:10pm 15.8 SSW 32 37 1009.9 - - - - - - - - -
21/02:50pm 15.9 SSW 32 37 1009.8 - - - - - - - - -
21/02:40pm 16.2 SSW 28 32 1009.6 - - - - - - - - -
21/02:30pm 16.6 SW 25 30 1009.4 - - - - - - - - -
21/02:20pm 16.8 SW 25 31 1009.5 - - - - - - - - -
21/02:10pm 16.9 SW 27 31 1009.1 - - - - - - - - -
21/02:00pm 17.1 SW 25 31 1009.0 - - - - - - - - -
21/01:50pm 17.3 SW 24 31 1009.1 - - - - - - - - -
21/01:40pm 17.4 SW 24 29 1009.2 - - - - - - - - -
21/01:30pm 17.7 SW 23 28 1008.8 - - - - - - - - -
21/01:20pm 17.9 SW 21 26 1008.8 - - - - - - - - -
21/01:10pm 18.1 SW 23 31 1008.6 - - - - - - - - -
21/01:00pm 18.5 SW 23 30 1008.4 - - - - - - - - -
21/12:50pm 18.9 SW 20 26 1008.4 - - - - - - - - -
21/12:40pm 19.1 SW 15 19 1008.5 - - - - - - - - -
21/12:30pm 19.2 SW 17 21 1008.2 - - - - - - - - -
21/12:20pm 19.0 SW 17 21 1008.2 - - - - - - - - -
21/12:00pm 18.7 SW 19 23 1008.0 - - - - - - - - -
21/11:50am 18.7 SW 19 24 1007.8 - - - - - - - - -
21/11:40am 18.5 SW 19 24 1007.7 - - - - - - - - -
21/11:30am 18.2 SW 17 23 1007.9 - - - - - - - - -
21/11:20am 18.1 SW 17 23 1007.9 - - - - - - - - -
21/11:10am 18.2 SW 17 21 1007.7 - - - - - - - - -
21/11:00am 18.3 SW 19 23 1007.6 - - - - - - - - -
21/10:50am 19.0 SW 17 22 1007.4 - - - - - - - - -
21/10:40am 19.7 SW 18 21 1007.2 - - - - - - - - -
21/10:30am 19.9 SW 18 22 1007.0 - - - - - - - - -
21/10:20am 19.6 WSW 19 22 1007.0 - - - - - - - - -
21/10:10am 19.4 SW 17 20 1006.9 - - - - - - - - -
21/10:00am 18.9 SW 18 21 1006.6 - - - - - - - - -
21/09:50am 18.5 WSW 19 23 1006.5 - - - - - - - - -
21/09:40am 18.1 WSW 20 25 1006.4 - - - - - - - - -
21/09:30am 17.9 WSW 20 26 1006.4 - - - - - - - - -
21/09:20am 17.7 SW 20 24 1006.4 - - - - - - - - -
21/08:50am 17.5 SW 19 23 1006.0 - - - - - - - - -
21/08:40am 17.5 SW 18 23 1005.8 - - - - - - - - -
21/08:30am 17.9 SW 19 22 1005.8 - - - - - - - - -
21/08:20am 18.4 WSW 16 20 1005.6 - - - - - - - - -
21/08:10am 18.8 WSW 14 17 1005.4 - - - - - - - - -
21/08:00am 19.4 WSW 15 18 1005.3 - - - - - - - - -
21/07:40am 20.6 WSW 14 17 1005.0 - - - - - - - - -
21/07:30am 20.1 WSW 15 17 1004.7 - - - - - - - - -
21/07:20am 19.3 WSW 15 18 1004.5 - - - - - - - - -
21/07:10am 19.6 SW 18 21 1004.2 - - - - - - - - -
21/07:00am 20.0 WSW 10 21 1004.2 - - - - - - - - -
21/06:50am 20.5 W 5 8 1004.1 - - - - - - - - -
21/06:40am 20.2 WNW 5 7 1004.0 - - - - - - - - -
21/06:20am 19.8 WNW 7 8 1003.7 - - - - - - - - -
21/06:10am 19.8 WNW 7 9 1003.5 - - - - - - - - -
21/06:00am 19.8 NW 7 10 1003.4 - - - - - - - - -
21/05:50am 19.6 WNW 5 7 1003.4 - - - - - - - - -
21/05:40am 19.3 NW 7 10 1003.4 - - - - - - - - -
21/05:30am 19.2 NNW 7 14 1003.4 - - - - - - - - -
21/05:20am 18.8 NNW 6 12 1003.3 - - - - - - - - -
21/05:10am 18.7 N 11 15 1003.1 - - - - - - - - -
21/05:00am 18.7 N 11 15 1003.1 - - - - - - - - -
21/04:50am 18.5 N 13 16 1003.1 - - - - - - - - -
21/04:40am 18.3 N 9 15 1003.1 - - - - - - - - -
21/04:30am 18.3 N 4 9 1003.2 - - - - - - - - -
21/04:20am 18.1 NNE 2 5 1003.2 - - - - - - - - -
21/04:10am 18.1 NNE 5 8 1003.3 - - - - - - - - -
21/04:00am 18.2 NNE 4 8 1003.4 - - - - - - - - -
21/03:50am 18.3 NNE 9 14 1003.5 - - - - - - - - -
21/03:40am 18.3 N 12 14 1003.6 - - - - - - - - -
21/03:30am 18.4 N 14 16 1003.6 - - - - - - - - -
21/03:20am 18.4 N 16 18 1003.8 - - - - - - - - -
21/03:10am 18.4 N 16 18 1004.0 - - - - - - - - -
21/03:00am 18.6 N 15 17 1004.3 - - - - - - - - -
21/02:50am 18.6 N 17 20 1004.3 - - - - - - - - -
21/02:40am 18.4 N 19 22 1004.4 - - - - - - - - -
21/02:30am 18.4 N 20 23 1004.6 - - - - - - - - -
21/02:20am 18.3 N 19 21 1004.8 - - - - - - - - -
21/02:10am 18.3 N 16 22 1005.0 - - - - - - - - -
21/02:00am 18.2 NE 7 10 1004.8 - - - - - - - - -
21/01:50am 18.2 NE 10 13 1004.8 - - - - - - - - -
21/01:40am 18.3 NE 12 14 1004.9 - - - - - - - - -
21/01:30am 18.0 NE 7 10 1005.2 - - - - - - - - -
21/01:20am 17.8 NE 1 4 1005.5 - - - - - - - - -
21/01:10am 17.7 E 0 2 1005.7 - - - - - - - - -
21/01:00am 17.7 ENE 1 3 1006.0 - - - - - - - - -
21/12:50am 17.6 E 1 2 1006.1 - - - - - - - - -
21/12:40am 17.6 E 0 2 1006.5 - - - - - - - - -
21/12:30am 17.4 E 1 2 1006.7 - - - - - - - - -
21/12:10am 17.2 E 2 6 1007.2 - - - - - - - - -
21/12:00am 17.2 E 3 6 1007.4 - - - - - - - - -
 
Date/Time
EDT
Temp

°C
Wind Pressure Rain
since 9am
mm
Weather Cloud Vis
km
Sea
Height
m
Swell
Dir
 
Speed
knots
Gust
knots
hPa Trend Height
m
Period
s
Dir
20/11:50pm 17.3 SE 2 5 1007.5 - - - - - - - - -
20/11:40pm 17.3 SE 4 8 1007.7 - - - - - - - - -
20/11:30pm 17.4 SE 4 8 1007.9 - - - - - - - - -
20/11:20pm 17.5 SSE 4 7 1007.9 - - - - - - - - -
20/11:10pm 17.5 S 4 5 1008.1 - - - - - - - - -
20/11:00pm 17.7 S 6 7 1008.2 - - - - - - - - -
20/10:50pm 17.8 S 9 11 1008.2 - - - - - - - - -
20/10:40pm 17.8 S 11 13 1008.3 - - - - - - - - -
20/10:30pm 17.9 S 13 16 1008.3 - - - - - - - - -
20/10:20pm 18.0 SSW 14 17 1008.3 - - - - - - - - -
20/10:10pm 18.1 SSW 14 17 1008.3 - - - - - - - - -
20/10:00pm 18.2 SSW 12 14 1008.1 - - - - - - - - -
20/09:50pm 18.3 SSW 12 14 1008.0 - - - - - - - - -
20/09:40pm 18.5 S 12 14 1007.8 - - - - - - - - -
20/09:30pm 18.6 S 13 14 1007.7 - - - - - - - - -
20/09:20pm 18.7 S 12 14 1007.6 - - - - - - - - -
20/09:10pm 18.9 SSW 13 15 1007.7 - - - - - - - - -
20/09:00pm 19.1 SSW 15 18 1007.7 - - - - - - - - -
20/08:50pm 19.2 SSW 16 19 1007.5 - - - - - - - - -
20/08:40pm 19.4 SSW 18 20 1007.6 - - - - - - - - -
20/08:30pm 19.4 SSW 17 20 1007.5 - - - - - - - - -
20/08:20pm 19.6 SSW 17 20 1007.5 - - - - - - - - -
20/08:10pm 19.9 SSW 18 23 1007.5 - - - - - - - - -
20/08:00pm 20.0 SSW 18 21 1007.5 - - - - - - - - -
20/07:50pm 20.3 SSW 17 20 1007.3 - - - - - - - - -
20/07:40pm 20.6 SSW 18 20 1007.1 - - - - - - - - -
20/07:30pm 20.7 SSW 19 20 1006.8 - - - - - - - - -
20/07:20pm 21.1 SSW 19 21 1006.6 - - - - - - - - -
20/07:10pm 22.6 SSW 20 23 1006.1 - - - - - - - - -
20/07:00pm 23.6 SW 21 24 1005.6 - - - - - - - - -
20/06:50pm 24.3 SW 19 23 1005.2 - - - - - - - - -
20/06:40pm 24.3 WSW 19 23 1004.9 - - - - - - - - -
20/06:30pm 23.9 WSW 16 24 1004.5 - - - - - - - - -
20/06:20pm 24.0 WNW 12 21 1004.4 - - - - - - - - -
20/06:10pm 23.2 WNW 11 16 1004.2 - - - - - - - - -
20/06:00pm 22.6 NW 11 14 1004.1 - - - - - - - - -
20/05:50pm 22.5 N 11 13 1003.9 - - - - - - - - -
20/05:40pm 22.7 - 11 14 1003.8 - - - - - - - - -
20/05:30pm 22.5 - 11 14 1003.7 - - - - - - - - -
20/05:20pm 22.4 N 14 15 1003.6 - - - - - - - - -
20/05:10pm 22.3 N 16 18 1003.5 - - - - - - - - -
20/05:00pm 22.2 N 17 19 1003.4 - - - - - - - - -
20/04:50pm 22.2 NNE 18 18 1003.4 - - - - - - - - -
20/04:40pm 22.4 NNE 16 17 1003.6 - - - - - - - - -
20/04:30pm 22.3 NNE 15 17 1003.7 - - - - - - - - -
20/04:20pm 22.3 NNE 16 17 1003.7 - - - - - - - - -
20/04:10pm 22.2 NNE 15 16 1003.9 - - - - - - - - -
20/04:00pm 22.3 NNE 15 16 1004.2 - - - - - - - - -
20/03:50pm 21.9 N 14 15 1004.4 - - - - - - - - -
20/03:40pm 21.9 N 14 15 1004.5 - - - - - - - - -
20/03:30pm 21.9 N 14 15 1004.5 - - - - - - - - -
20/03:20pm 21.8 N 14 15 1004.6 - - - - - - - - -
20/03:10pm 21.5 N 15 16 1004.7 - - - - - - - - -
20/03:00pm 21.4 NNE 15 16 1004.8 - - - - - - - - -
20/02:50pm 21.3 NNE 15 15 1004.9 - - - - - - - - -
20/02:40pm 21.2 NNE 14 15 1005.0 - - - - - - - - -
20/02:30pm 21.3 NNE 13 15 1005.3 - - - - - - - - -
20/02:20pm 21.3 NNE 15 17 1005.3 - - - - - - - - -
20/02:10pm 21.0 NNE 14 16 1005.4 - - - - - - - - -
20/02:00pm 21.1 NNE 13 15 1005.4 - - - - - - - - -
20/01:50pm 21.1 NNE 14 15 1005.5 - - - - - - - - -
20/01:30pm 21.4 N 14 15 1005.8 - - - - - - - - -
20/01:20pm 21.4 N 15 16 1005.9 - - - - - - - - -
20/01:10pm 21.3 N 14 15 1006.0 - - - - - - - - -
20/01:00pm 21.3 N 14 15 1006.1 - - - - - - - - -
20/12:50pm 21.6 N 14 15 1006.2 - - - - - - - - -
20/12:40pm 21.6 N 14 15 1006.4 - - - - - - - - -
20/12:30pm 21.7 N 14 15 1006.5 - - - - - - - - -
20/12:20pm 21.6 N 15 16 1006.7 - - - - - - - - -
20/12:10pm 21.6 N 15 17 1006.7 - - - - - - - - -
20/12:00pm 21.4 N 16 16 1006.9 - - - - - - - - -
20/11:50am 21.5 N 16 17 1007.0 - - - - - - - - -
20/11:40am 21.5 N 14 17 1007.0 - - - - - - - - -
20/11:30am 21.0 N 14 16 1007.0 - - - - - - - - -
20/11:20am 21.1 N 14 15 1007.1 - - - - - - - - -
20/11:10am 21.4 N 15 17 1007.3 - - - - - - - - -
20/11:00am 21.5 N 16 18 1007.5 - - - - - - - - -
20/10:50am 21.3 N 15 16 1007.7 - - - - - - - - -
20/10:40am 21.1 N 15 16 1007.6 - - - - - - - - -
20/10:30am 21.4 N 14 16 1007.8 - - - - - - - - -
20/10:20am 21.4 N 13 14 1008.0 - - - - - - - - -
20/10:10am 21.0 N 13 14 1008.1 - - - - - - - - -
20/10:00am 20.4 N 13 14 1008.1 - - - - - - - - -
20/09:50am 20.5 N 13 15 1008.2 - - - - - - - - -
20/09:40am 20.1 N 13 14 1008.3 - - - - - - - - -
20/09:30am 20.1 - 11 13 1008.6 - - - - - - - - -
20/09:20am 20.3 N 12 14 1008.5 - - - - - - - - -
20/09:10am 20.8 N 12 14 1008.5 - - - - - - - - -
20/09:00am 19.9 N 13 15 1008.5 - - - - - - - - -
20/08:50am 19.7 N 13 15 1008.4 - - - - - - - - -
20/08:40am 19.7 N 14 16 1008.5 - - - - - - - - -
20/08:30am 19.8 N 12 15 1008.6 - - - - - - - - -
20/08:20am 19.9 N 13 16 1008.6 - - - - - - - - -
20/08:10am 20.3 N 13 15 1008.5 - - - - - - - - -
20/07:40am 18.5 N 14 15 1008.7 - - - - - - - - -
20/07:30am 18.5 N 13 16 1008.7 - - - - - - - - -
20/07:20am 18.5 N 14 16 1008.6 - - - - - - - - -
20/07:10am 17.9 N 13 14 1008.7 - - - - - - - - -
20/07:00am 17.8 N 13 14 1008.5 - - - - - - - - -
20/06:50am 17.8 N 13 14 1008.4 - - - - - - - - -
20/06:40am 17.8 N 12 15 1008.5 - - - - - - - - -
20/06:30am 17.8 N 12 13 1008.6 - - - - - - - - -
20/06:20am 17.8 N 13 14 1008.6 - - - - - - - - -
20/06:10am 17.9 NNE 12 15 1008.5 - - - - - - - - -
20/06:00am 18.0 NNE 13 15 1008.5 - - - - - - - - -
20/05:50am 17.9 NNE 16 17 1008.5 - - - - - - - - -
20/05:40am 17.8 N 14 18 1008.8 - - - - - - - - -
20/05:30am 17.6 N 13 16 1008.8 - - - - - - - - -
20/05:20am 17.6 N 8 13 1009.0 - - - - - - - - -
20/05:10am 17.5 N 11 13 1009.1 - - - - - - - - -
20/05:00am 17.4 N 11 13 1009.1 - - - - - - - - -
20/04:50am 17.4 N 12 13 1009.0 - - - - - - - - -
20/04:40am 17.4 N 12 14 1009.0 - - - - - - - - -
20/04:30am 17.4 N 11 13 1009.2 - - - - - - - - -
20/04:20am 17.4 N 10 12 1009.2 - - - - - - - - -
20/04:10am 17.4 N 11 12 1009.3 - - - - - - - - -
20/04:00am 17.4 N 11 12 1009.5 - - - - - - - - -
20/03:50am 17.5 NNE 11 13 1009.6 - - - - - - - - -
20/03:40am 17.6 NNE 12 13 1009.6 - - - - - - - - -
20/03:30am 17.6 NNE 12 13 1010.1 - - - - - - - - -
20/03:20am 17.7 NNE 10 12 1010.5 - - - - - - - - -
20/03:10am 17.7 NNE 9 9 1010.6 - - - - - - - - -
20/03:00am 17.6 N 9 9 1010.7 - - - - - - - - -
20/02:50am 17.6 N 8 9 1010.8 - - - - - - - - -
20/02:40am 17.5 N 7 8 1010.9 - - - - - - - - -

Other Formats:

Comma delimited format used in spreadsheet applications
http://www.bom.gov.au/fwo/IDV60701/IDV60701.55039.axf

JavaScript Object Notation format (JSON) in row-major order
http://www.bom.gov.au/fwo/IDV60701/IDV60701.55039.json